Saddle, North Carolina
Current Conditions -  °F | °C
As of 8:55 PM on Wednesday 26 Nov 2014 (Local Time) from KHLX Reporting Station
Clear Clear  
Wind Chill: 34°   Ceiling: Unl
Heat Index: 34°   Visibility: 10mi
Dew Point: 32°   Wind: 3mph
Humidity: 91%   Direction: 310°NW
Pressure: 29.97"   Gusts: NA
Location:  36.5243°N, 80.9743°W
Report Text: KHLX 270155Z AUTO 31003KT 10SM CLR 01/00 A2997 RMK AO2 T00111002
Loading
Personal Weather Stations






























Interactive Weather Map New forecast layout! Learn more

10-Day Weather Forecast

Advertisements
Track Severe Weather on mobile